Goshen, Alabama
Current Conditions -  °F | °C
As of 5:10 PM on Sunday 21 Dec 2014 (Local Time) from KTOI Reporting Station
Haze Haze  
Wind Chill: 53°   Ceiling: 500
Heat Index: 53°   Visibility: 3mi
Dew Point: 51°   Wind: 7mph
Humidity: 93%   Direction: 70°ENE
Pressure: 30.05"   Gusts: NA
Location:  31.72°N, 86.12°W
Report Text: KTOI 212310Z AUTO 07006KT 3SM BR OVC005 12/11 A3005 RMK AO2 CIG 003V008 T01170106
Loading
Personal Weather Stations






























Interactive Weather Map New forecast layout! Learn more

10-Day Weather Forecast

Advertisements
Track Severe Weather on mobile